Time;durP1;ratioP1;P1;durP2;ratioP2;P2;SDS_P1;SDS_P2;PMS_P1;PMS_P2;Temp;Humidity;BMP_temperature;BMP_pressure;BME280_temperature;BME280_humidity;BME280_pressure;Samples;Min_cycle;Max_cycle;Signal;HPM_P1;HPM_P2
2021/07/14 00:00:14;;;;;;;14.45;11.63;;;;;;;30.15;43.91;99017.41;4484847;32;34127;-64
2021/07/14 00:02:41;;;;;;;19.02;10.57;;;;;;;30.16;43.87;99005.28;4483431;32;34556;-64
2021/07/14 00:05:10;;;;;;;15.13;11.43;;;;;;;30.14;43.86;99002.00;4484694;32;33974;-65
2021/07/14 00:07:37;;;;;;;12.98;10.60;;;;;;;30.14;43.83;99007.50;4484548;32;33522;-64
2021/07/14 00:10:09;;;;;;;16.92;11.23;;;;;;;30.12;43.86;99008.88;4484538;32;34915;-64
2021/07/14 00:12:46;;;;;;;16.23;10.80;;;;;;;30.10;43.83;99006.41;4484709;32;34526;-64
2021/07/14 00:23:31;;;;;;;14.02;11.05;;;;;;;30.08;43.77;99000.41;4484600;32;33960;-64
2021/07/14 00:26:00;;;;;;;14.27;10.80;;;;;;;30.07;43.72;99008.91;4483794;32;34260;-64
2021/07/14 00:28:27;;;;;;;13.55;10.82;;;;;;;30.06;43.52;99016.34;4484045;32;34008;-63
2021/07/14 00:30:57;;;;;;;15.50;11.43;;;;;;;30.07;43.72;99017.19;4481065;32;34066;-64
2021/07/14 00:33:26;;;;;;;15.75;11.30;;;;;;;30.06;43.57;99016.34;4484551;32;33945;-64
2021/07/14 00:35:54;;;;;;;12.68;10.82;;;;;;;30.06;43.46;99010.84;4483934;32;33550;-63
2021/07/14 00:38:24;;;;;;;11.88;10.55;;;;;;;30.07;43.57;99012.50;4483126;32;33951;-64
2021/07/14 00:40:52;;;;;;;13.00;11.15;;;;;;;30.07;43.48;99020.75;4483724;32;34015;-64
2021/07/14 00:43:20;;;;;;;14.80;11.80;;;;;;;30.07;43.42;99020.75;4483264;32;33945;-64
2021/07/14 00:45:47;;;;;;;15.43;11.23;;;;;;;30.06;43.28;99023.78;4483061;32;33603;-63
2021/07/14 00:48:15;;;;;;;14.32;10.73;;;;;;;30.05;43.13;99025.72;4480627;32;34727;-63
2021/07/14 00:50:43;;;;;;;15.30;10.73;;;;;;;30.06;43.60;99021.84;4473945;32;34811;-63
2021/07/14 00:53:10;;;;;;;12.32;10.80;;;;;;;30.06;43.29;99023.78;4484043;32;34618;-63
2021/07/14 00:55:38;;;;;;;16.83;10.27;;;;;;;30.05;43.33;99025.72;4484279;32;33503;-63
2021/07/14 00:58:05;;;;;;;13.90;10.23;;;;;;;30.05;43.33;99038.66;4484342;32;34458;-63
2021/07/14 01:00:33;;;;;;;15.88;10.63;;;;;;;30.06;43.47;99034.78;4484225;32;34880;-63
2021/07/14 01:03:00;;;;;;;18.10;10.73;;;;;;;30.06;43.52;99032.03;4484393;32;34528;-62
2021/07/14 01:05:31;;;;;;;12.77;10.45;;;;;;;30.05;43.48;99044.97;4482857;32;34248;-63
2021/07/14 01:08:04;;;;;;;12.27;10.15;;;;;;;30.05;43.51;99042.22;4470274;32;33926;-63
2021/07/14 01:10:41;;;;;;;12.00;10.80;;;;;;;30.05;43.32;99042.22;4484456;32;33996;-63
2021/07/14 01:13:12;;;;;;;14.40;10.18;;;;;;;30.05;43.35;99044.97;4484162;32;34460;-63
2021/07/14 01:15:44;;;;;;;13.25;10.65;;;;;;;30.06;43.64;99046.63;4470484;32;33551;-63
2021/07/14 01:18:17;;;;;;;13.23;10.55;;;;;;;30.04;43.43;99029.59;4483056;32;34638;-63
2021/07/14 01:20:58;;;;;;;15.00;11.00;;;;;;;30.05;43.39;99033.16;4484261;32;34269;-63
2021/07/14 01:24:08;;;;;;;12.02;10.77;;;;;;;30.06;43.54;99021.84;4482832;32;33849;-63
2021/07/14 01:26:38;;;;;;;;;;;;;;;30.07;43.45;99015.25;4476736;32;33718;-63
2021/07/14 01:29:06;;;;;;;12.60;9.80;;;;;;;30.15;43.23;99009.16;4484111;32;34856;-62
2021/07/14 01:31:34;;;;;;;12.98;10.38;;;;;;;30.07;43.69;98995.16;4470028;32;33960;-62
2021/07/14 01:34:03;;;;;;;14.15;10.82;;;;;;;30.03;43.53;98996.84;4482978;32;33923;-63
2021/07/14 01:36:31;;;;;;;15.00;10.77;;;;;;;30.02;43.57;98998.78;4484236;32;34612;-63
2021/07/14 01:38:59;;;;;;;15.77;10.98;;;;;;;30.02;43.56;98989.72;4482859;32;34376;-62
2021/07/14 01:41:28;;;;;;;19.12;11.07;;;;;;;30.02;43.45;98986.97;4482343;32;34907;-62
2021/07/14 01:43:57;;;;;;;18.70;10.30;;;;;;;30.01;43.66;98999.91;4482591;32;34535;-63
2021/07/14 01:46:26;;;;;;;16.77;10.43;;;;;;;30.01;43.62;98997.16;4463386;32;34105;-63
2021/07/14 01:48:54;;;;;;;12.10;10.52;;;;;;;30.01;43.76;98991.66;4464246;32;79220;-62
2021/07/14 01:51:21;;;;;;;15.98;10.63;;;;;;;30.01;43.78;98991.66;4454212;32;34749;-63
2021/07/14 01:53:49;;;;;;;14.25;10.90;;;;;;;30.01;43.82;98991.66;4466995;32;34460;-63
2021/07/14 01:56:16;;;;;;;12.15;10.07;;;;;;;30.01;43.82;98988.91;4466774;32;34234;-63
2021/07/14 01:58:45;;;;;;;13.05;9.95;;;;;;;30.01;43.67;98991.66;4467000;32;33992;-63
2021/07/14 02:01:14;;;;;;;14.90;9.80;;;;;;;30.02;43.63;98984.22;4467137;32;33903;-63
2021/07/14 02:03:53;;;;;;;13.80;9.45;;;;;;;30.03;43.50;98988.59;4466745;32;33859;-63
2021/07/14 02:06:21;;;;;;;12.45;10.43;;;;;;;30.02;43.47;98976.78;4455404;32;33465;-63
2021/07/14 02:08:49;;;;;;;15.60;10.15;;;;;;;30.03;43.44;98978.44;4466661;32;34902;-63
2021/07/14 02:11:20;;;;;;;13.70;10.60;;;;;;;30.02;43.36;98986.97;4466761;32;34154;-63
2021/07/14 02:13:50;;;;;;;11.45;10.25;;;;;;;30.00;43.37;98992.78;4466675;32;34535;-63
2021/07/14 02:16:18;;;;;;;;;;;;;;;30.01;43.35;98997.16;4454057;32;33265;-63
2021/07/14 02:18:45;;;;;;;11.75;10.32;;;;;;;30.13;42.96;99000.38;4467013;32;34717;-63
2021/07/14 02:21:13;;;;;;;12.20;10.20;;;;;;;30.06;43.23;98993.53;4453743;32;34747;-63
2021/07/14 02:23:40;;;;;;;12.20;10.05;;;;;;;30.02;43.10;99000.72;4467882;32;34569;-63
2021/07/14 02:26:08;;;;;;;14.87;10.13;;;;;;;30.02;43.32;98995.22;4466506;32;33890;-63
2021/07/14 02:28:36;;;;;;;14.15;10.23;;;;;;;30.00;43.29;98998.28;4467766;32;33914;-63
2021/07/14 02:31:03;;;;;;;13.65;10.60;;;;;;;29.99;43.24;98999.38;4467512;32;34112;-63
2021/07/14 02:33:31;;;;;;;17.98;10.65;;;;;;;29.99;43.31;98997.44;4467673;32;33746;-63
2021/07/14 02:36:00;;;;;;;12.32;10.23;;;;;;;30.01;43.26;98991.66;4467593;32;34302;-63
2021/07/14 02:38:39;;;;;;;14.00;10.40;;;;;;;29.99;43.27;98985.63;4466143;32;33886;-63
2021/07/14 02:41:25;;;;;;;13.32;11.18;;;;;;;30.02;43.03;98987.78;4466329;32;34051;-63
2021/07/14 02:43:58;;;;;;;14.07;10.43;;;;;;;30.01;42.97;98994.41;4473206;32;33469;-63
2021/07/14 02:46:42;;;;;;;10.98;9.25;;;;;;;30.56;41.95;98989.44;4525234;31;78371;-63
2021/07/14 02:49:11;;;;;;;13.00;10.38;;;;;;;30.56;41.95;98989.44;4510971;31;33809;-63
2021/07/14 02:51:39;;;;;;;12.67;9.83;;;;;;;29.99;42.88;98991.94;4500824;31;33871;-63
2021/07/14 02:54:11;;;;;;;13.00;9.98;;;;;;;30.00;42.87;98992.78;4494853;31;33703;-63
2021/07/14 02:56:39;;;;;;;13.60;10.35;;;;;;;30.00;42.98;98992.78;4494993;32;33747;-63
2021/07/14 02:59:08;;;;;;;14.10;9.93;;;;;;;29.99;42.93;98989.19;4494841;32;33927;-63
2021/07/14 03:01:41;;;;;;;12.77;10.23;;;;;;;29.99;42.88;98994.69;4495070;32;34149;-63
2021/07/14 03:04:09;;;;;;;14.98;9.98;;;;;;;29.98;42.87;98987.56;4494912;31;34044;-63
2021/07/14 03:06:38;;;;;;;11.00;9.77;;;;;;;29.98;42.94;98997.72;4494833;32;33771;-63
2021/07/14 03:09:06;;;;;;;11.70;9.85;;;;;;;29.98;42.64;98994.97;4482118;32;33226;-63
2021/07/14 03:11:41;;;;;;;14.27;9.88;;;;;;;29.98;42.92;98998.56;4494862;32;34816;-63
2021/07/14 03:14:10;;;;;;;13.60;10.18;;;;;;;29.99;43.06;98991.94;4495885;31;34027;-63
2021/07/14 03:16:38;;;;;;;14.30;10.32;;;;;;;29.96;42.87;98989.78;4494879;31;34023;-63
2021/07/14 03:19:06;;;;;;;13.52;9.50;;;;;;;29.97;42.98;98990.59;4494868;32;33475;-63
2021/07/14 03:21:34;;;;;;;14.02;10.27;;;;;;;29.95;42.59;98988.13;4494591;32;33373;-63
2021/07/14 03:24:05;;;;;;;13.50;9.60;;;;;;;29.97;42.67;98987.84;4495962;32;34515;-63
2021/07/14 03:26:32;;;;;;;12.68;9.77;;;;;;;29.95;42.85;98982.63;4495914;31;33460;-63
2021/07/14 03:29:00;;;;;;;14.35;10.02;;;;;;;29.95;42.77;98990.88;4481752;32;34234;-63
2021/07/14 03:31:29;;;;;;;12.00;10.30;;;;;;;29.96;42.86;98997.22;4494675;31;33945;-63
2021/07/14 03:33:57;;;;;;;16.23;10.20;;;;;;;29.95;42.78;98990.88;4494746;32;33611;-63
2021/07/14 03:36:25;;;;;;;13.57;9.95;;;;;;;29.95;42.89;98990.88;4494443;31;34426;-63
2021/07/14 03:38:53;;;;;;;11.95;10.05;;;;;;;29.97;42.88;98993.34;4494565;32;33353;-63
2021/07/14 03:41:20;;;;;;;11.25;9.40;;;;;;;29.96;42.95;98995.28;4495816;32;34600;-63
2021/07/14 03:43:48;;;;;;;15.93;10.27;;;;;;;29.96;42.86;98989.78;4495575;32;34244;-63
2021/07/14 03:46:15;;;;;;;13.98;10.25;;;;;;;29.96;42.84;98999.97;4481545;32;33771;-63
2021/07/14 03:48:43;;;;;;;12.50;10.00;;;;;;;29.96;42.69;99006.28;4481898;32;33562;-63
2021/07/14 03:51:10;;;;;;;12.70;10.02;;;;;;;29.96;42.71;99010.97;4494230;31;34000;-63
2021/07/14 03:53:38;;;;;;;15.73;10.18;;;;;;;29.96;42.87;99008.22;4494540;32;34067;-63
2021/07/14 03:56:05;;;;;;;11.30;9.55;;;;;;;29.96;42.80;99013.72;4493546;32;34929;-63
2021/07/14 03:58:33;;;;;;;15.15;10.05;;;;;;;29.97;42.79;99015.34;4470885;32;34230;-63
2021/07/14 04:01:01;;;;;;;14.90;10.18;;;;;;;29.97;42.87;99012.59;4483923;32;33953;-63
2021/07/14 04:03:29;;;;;;;11.32;9.48;;;;;;;29.96;42.88;99024.72;4471019;32;34195;-63
2021/07/14 04:06:03;;;;;;;14.50;10.02;;;;;;;29.96;42.99;99024.72;4470815;32;33797;-63
2021/07/14 04:08:44;;;;;;;13.57;9.75;;;;;;;29.96;43.07;99022.78;4485140;32;33437;-63
2021/07/14 04:11:12;;;;;;;18.95;9.52;;;;;;;29.99;43.02;99018.66;4485043;32;33900;-63
2021/07/14 04:13:41;;;;;;;13.05;9.43;;;;;;;29.96;43.01;99020.03;4485080;32;34094;-63
2021/07/14 04:16:08;;;;;;;15.55;10.07;;;;;;;29.94;42.79;99016.75;4485054;32;33740;-63
2021/07/14 04:18:37;;;;;;;11.75;9.73;;;;;;;29.95;42.75;99023.06;4485085;32;34123;-63
2021/07/14 04:21:05;;;;;;;14.10;9.70;;;;;;;29.96;42.79;99021.97;4485056;32;33895;-63
2021/07/14 04:23:32;;;;;;;12.68;9.43;;;;;;;29.98;42.75;99028.81;4484970;32;33974;-63
2021/07/14 04:26:00;;;;;;;14.68;10.20;;;;;;;29.96;42.92;99016.47;4484935;32;33859;-63
2021/07/14 04:28:28;;;;;;;15.93;9.63;;;;;;;29.96;43.00;99011.78;4485053;32;33142;-63
2021/07/14 04:30:55;;;;;;;15.20;9.90;;;;;;;29.96;42.97;99009.03;4484836;32;34120;-63
2021/07/14 04:33:22;;;;;;;13.57;9.40;;;;;;;29.96;42.87;99022.78;4484860;32;34414;-63
2021/07/14 04:35:50;;;;;;;18.02;9.77;;;;;;;29.96;42.79;99032.97;4484924;32;33871;-63
2021/07/14 04:38:18;;;;;;;25.60;10.60;;;;;;;29.96;42.59;99027.47;4484670;32;33882;-62
2021/07/14 04:40:45;;;;;;;16.90;10.55;;;;;;;29.96;42.68;99038.47;4484877;32;34899;-62
2021/07/14 04:43:13;;;;;;;20.35;9.93;;;;;;;29.96;42.76;99021.97;4484774;32;34816;-63
2021/07/14 04:45:41;;;;;;;17.20;10.60;;;;;;;29.95;42.57;99037.66;4484449;32;34587;-62
2021/07/14 04:48:08;;;;;;;15.45;10.13;;;;;;;29.96;42.64;99031.03;4484953;32;32733;-63
2021/07/14 04:50:36;;;;;;;14.50;10.25;;;;;;;29.95;42.72;99025.81;4484728;32;34901;-63
2021/07/14 04:53:04;;;;;;;22.33;10.07;;;;;;;29.95;42.66;99012.88;4484593;32;34765;-63
2021/07/14 04:55:31;;;;;;;14.85;10.52;;;;;;;29.96;42.64;99010.97;4485068;32;33555;-63
2021/07/14 04:57:59;;;;;;;21.92;10.43;;;;;;;29.95;42.72;99020.31;4484844;32;33076;-63
2021/07/14 05:00:26;;;;;;;15.88;9.68;;;;;;;29.96;42.64;99019.22;4484724;32;34028;-63
2021/07/14 05:02:56;;;;;;;14.95;10.18;;;;;;;29.96;42.70;99024.72;4484737;32;33981;-62
2021/07/14 05:05:23;;;;;;;16.67;9.23;;;;;;;29.95;42.66;99014.81;4484677;32;33404;-63
2021/07/14 05:07:51;;;;;;;16.37;10.45;;;;;;;29.96;42.57;99016.47;4482464;32;33514;-62
2021/07/14 05:10:20;;;;;;;16.25;9.95;;;;;;;29.96;42.70;99010.97;4484356;32;34427;-63
2021/07/14 05:12:48;;;;;;;;;;;;;;;29.96;42.76;98994.44;4485045;32;34891;-63
2021/07/14 05:15:15;;;;;;;16.15;10.25;;;;;;;30.10;42.55;99005.59;4484631;32;34131;-62
2021/07/14 05:17:43;;;;;;;17.65;10.23;;;;;;;30.00;42.75;99009.28;4484739;32;33446;-62
2021/07/14 05:20:10;;;;;;;16.50;10.30;;;;;;;29.95;42.72;99004.63;4483458;32;33467;-63
2021/07/14 05:22:38;;;;;;;16.77;10.55;;;;;;;29.95;42.79;99012.06;4484406;32;34098;-63
2021/07/14 05:25:07;;;;;;;12.73;9.52;;;;;;;29.96;42.80;99005.47;4483326;32;33953;-63
2021/07/14 05:27:35;;;;;;;12.43;9.98;;;;;;;29.94;42.97;99010.44;4484487;32;34168;-63
2021/07/14 05:30:05;;;;;;;12.73;9.35;;;;;;;29.95;42.86;99012.88;4483234;32;34650;-62
2021/07/14 05:32:32;;;;;;;15.23;10.52;;;;;;;29.94;42.72;99016.75;4484620;32;34027;-63
2021/07/14 05:35:00;;;;;;;12.37;9.68;;;;;;;29.94;42.50;99013.19;4484599;32;34302;-62
2021/07/14 05:37:28;;;;;;;12.45;10.05;;;;;;;29.94;42.60;99014.00;4483182;32;33366;-63
2021/07/14 05:39:55;;;;;;;13.02;9.82;;;;;;;29.95;42.61;99017.56;4484498;32;34167;-63
2021/07/14 05:42:23;;;;;;;16.25;10.20;;;;;;;29.95;42.54;99014.81;4484489;32;34310;-63
2021/07/14 05:44:50;;;;;;;14.85;10.13;;;;;;;29.94;42.50;99018.69;4484092;32;33733;-63
2021/07/14 05:47:18;;;;;;;16.87;9.45;;;;;;;29.95;42.52;99020.31;4484418;32;34359;-63
2021/07/14 05:49:45;;;;;;;13.05;9.50;;;;;;;29.93;42.43;99023.34;4484479;32;34103;-63
2021/07/14 05:52:14;;;;;;;13.45;9.40;;;;;;;29.94;42.37;99029.69;4482888;31;34047;-63
2021/07/14 05:54:42;;;;;;;13.50;9.98;;;;;;;29.94;42.28;99035.19;4484230;32;34077;-63
2021/07/14 05:57:09;;;;;;;19.48;9.50;;;;;;;29.94;42.27;99037.94;4484418;32;33751;-63
2021/07/14 05:59:37;;;;;;;12.77;9.65;;;;;;;29.94;42.20;99044.25;4484306;32;33619;-63
2021/07/14 06:02:05;;;;;;;19.10;9.60;;;;;;;29.96;42.35;99041.22;4484254;32;34265;-63
2021/07/14 06:04:32;;;;;;;18.02;9.52;;;;;;;29.96;42.41;99042.03;4484216;32;33719;-63
2021/07/14 06:07:01;;;;;;;17.05;9.88;;;;;;;29.96;42.34;99041.22;4484290;32;34745;-63
2021/07/14 06:09:28;;;;;;;14.52;9.85;;;;;;;29.94;42.17;99022.25;4484359;32;33245;-63
2021/07/14 06:11:56;;;;;;;12.73;9.70;;;;;;;29.95;42.37;99034.91;4482927;32;34138;-63
2021/07/14 06:14:23;;;;;;;16.45;10.13;;;;;;;29.94;42.30;99040.69;4484263;32;33117;-63
2021/07/14 06:16:51;;;;;;;19.50;10.13;;;;;;;29.94;42.07;99041.50;4484176;32;33439;-63
2021/07/14 06:19:20;;;;;;;14.15;9.98;;;;;;;29.92;42.09;99032.72;4484049;32;33540;-63
2021/07/14 06:21:47;;;;;;;16.65;9.60;;;;;;;29.95;42.19;99031.31;4484131;32;34849;-63
2021/07/14 06:24:14;;;;;;;16.15;10.00;;;;;;;29.94;42.08;99025.00;4484066;32;33840;-63
2021/07/14 06:26:42;;;;;;;28.73;10.25;;;;;;;29.95;42.31;99028.56;4483847;32;33240;-62
2021/07/14 06:29:10;;;;;;;19.85;10.32;;;;;;;29.98;42.37;99016.97;4484228;32;34504;-63
2021/07/14 06:31:37;;;;;;;21.20;9.52;;;;;;;29.99;42.43;99021.41;4483931;32;34504;-62
2021/07/14 06:34:05;;;;;;;18.52;10.00;;;;;;;30.00;42.46;99025.78;4483911;32;33813;-63
2021/07/14 06:36:33;;;;;;;17.65;9.32;;;;;;;29.98;42.49;99023.31;4483978;32;33595;-63
2021/07/14 06:39:02;;;;;;;15.85;9.25;;;;;;;29.99;42.46;99035.16;4483966;32;35422;-63
2021/07/14 06:41:30;;;;;;;15.30;9.20;;;;;;;29.99;42.50;99033.22;4483757;32;34155;-63
2021/07/14 06:44:01;;;;;;;12.98;9.43;;;;;;;30.00;42.47;99045.03;4483818;32;33782;-63
2021/07/14 06:46:29;;;;;;;13.20;9.27;;;;;;;30.00;42.46;99045.03;4483636;32;33360;-63
2021/07/14 06:48:57;;;;;;;18.55;9.50;;;;;;;29.99;42.46;99048.91;4483601;32;33921;-62
2021/07/14 06:51:24;;;;;;;16.20;9.70;;;;;;;29.98;42.47;99045.34;4483669;32;35030;-63
2021/07/14 06:53:52;;;;;;;15.68;9.38;;;;;;;29.99;42.46;99043.41;4483963;32;33566;-63
2021/07/14 06:56:20;;;;;;;13.48;9.40;;;;;;;30.00;42.47;99053.28;4483610;32;34211;-63
2021/07/14 06:58:47;;;;;;;16.77;10.18;;;;;;;29.99;42.50;99038.72;4483651;32;34176;-63
2021/07/14 07:01:15;;;;;;;15.15;9.65;;;;;;;30.00;42.50;99039.53;4483498;32;34112;-63
2021/07/14 07:03:43;;;;;;;12.35;9.02;;;;;;;29.99;42.50;99035.97;4483450;32;34413;-63
2021/07/14 07:06:10;;;;;;;12.57;9.48;;;;;;;30.00;42.50;99039.53;4483693;32;33163;-63
2021/07/14 07:08:37;;;;;;;15.07;9.48;;;;;;;30.00;42.52;99034.03;4481038;32;33548;-62
2021/07/14 07:11:05;;;;;;;14.20;9.75;;;;;;;30.01;42.47;99054.91;4483169;32;34349;-63
2021/07/14 07:13:33;;;;;;;13.52;8.82;;;;;;;30.00;42.50;99036.78;4477664;32;34228;-63
2021/07/14 07:16:01;;;;;;;14.18;9.90;;;;;;;30.01;42.51;99030.16;4467659;32;34307;-63
2021/07/14 07:18:29;;;;;;;13.20;9.48;;;;;;;30.01;42.50;99019.16;4474300;32;34044;-63
2021/07/14 07:20:57;;;;;;;12.68;9.43;;;;;;;30.02;42.46;99019.97;4481053;32;33979;-64
2021/07/14 07:23:24;;;;;;;14.77;9.43;;;;;;;30.02;42.50;99029.03;4483304;32;33426;-63
2021/07/14 07:25:54;;;;;;;13.73;9.25;;;;;;;30.04;42.59;99034.28;4483215;32;33446;-63
2021/07/14 07:28:27;;;;;;;13.75;9.07;;;;;;;30.04;42.56;99037.84;4482864;32;34199;-64
2021/07/14 07:30:55;;;;;;;11.82;9.13;;;;;;;30.03;42.55;99036.22;4482989;32;34786;-63
2021/07/14 07:33:22;;;;;;;15.77;9.05;;;;;;;30.03;42.54;99033.47;4485192;32;33854;-65
2021/07/14 07:35:50;;;;;;;10.85;8.80;;;;;;;30.02;42.52;99031.78;4485447;32;33342;-63
2021/07/14 07:38:17;;;;;;;11.40;8.82;;;;;;;30.03;42.51;99033.47;4485388;32;34522;-65
2021/07/14 07:40:46;;;;;;;12.52;8.93;;;;;;;30.03;42.51;99038.97;4485127;32;34573;-63
2021/07/14 07:43:13;;;;;;;10.43;8.18;;;;;;;30.03;42.53;99033.47;4485239;32;33865;-63
2021/07/14 07:45:41;;;;;;;10.18;8.63;;;;;;;30.04;42.51;99040.59;4484814;32;33599;-64
2021/07/14 07:48:10;;;;;;;10.50;8.60;;;;;;;30.05;42.51;99047.72;4485068;32;33882;-64
2021/07/14 07:50:37;;;;;;;18.85;9.70;;;;;;;30.03;42.53;99038.97;4471030;32;34085;-64
2021/07/14 07:53:05;;;;;;;12.10;8.52;;;;;;;30.05;42.51;99046.91;4485172;32;33879;-65
2021/07/14 07:55:32;;;;;;;12.15;8.27;;;;;;;30.04;42.52;99046.09;4484979;32;34616;-65
2021/07/14 07:58:00;;;;;;;12.65;8.40;;;;;;;30.05;42.50;99039.47;4484137;32;34339;-65
2021/07/14 08:00:27;;;;;;;13.05;8.45;;;;;;;30.06;42.49;99045.81;4485040;32;33928;-64
2021/07/14 08:02:56;;;;;;;13.60;8.23;;;;;;;30.05;42.49;99053.25;4485165;32;33929;-65
2021/07/14 08:05:23;;;;;;;10.50;8.35;;;;;;;30.05;42.49;99047.72;4485188;32;33157;-65
2021/07/14 08:07:52;;;;;;;10.95;8.20;;;;;;;30.06;42.50;99054.88;4484808;32;34646;-66
2021/07/14 08:10:19;;;;;;;12.90;8.60;;;;;;;30.06;42.49;99065.06;4485414;32;34066;-64
2021/07/14 08:12:47;;;;;;;11.88;8.27;;;;;;;30.06;42.50;99062.31;4485140;32;33834;-64
2021/07/14 08:15:14;;;;;;;13.50;8.38;;;;;;;30.05;42.51;99061.50;4484603;32;34171;-65
2021/07/14 08:17:42;;;;;;;10.98;8.50;;;;;;;30.05;42.61;99053.25;4483514;32;33949;-63
2021/07/14 08:20:10;;;;;;;11.20;8.43;;;;;;;30.06;42.66;99054.06;4484988;32;34764;-63
2021/07/14 08:22:38;;;;;;;14.65;8.70;;;;;;;30.06;42.63;99048.56;4484848;32;33792;-65
2021/07/14 08:25:07;;;;;;;9.68;8.25;;;;;;;30.06;42.57;99057.63;4484825;32;34399;-63
2021/07/14 08:27:35;;;;;;;12.43;8.77;;;;;;;30.06;42.63;99065.88;4484956;32;33969;-65
2021/07/14 08:30:04;;;;;;;11.80;8.55;;;;;;;30.07;42.60;99045.50;4484833;32;34374;-65
2021/07/14 08:32:32;;;;;;;;;;;;;;;30.07;42.56;99044.69;4484006;32;33446;-65
2021/07/14 08:34:59;;;;;;;12.23;7.65;;;;;;;30.18;42.29;99058.09;4484614;32;32724;-65
2021/07/14 08:37:26;;;;;;;11.73;8.25;;;;;;;30.10;42.54;99063.37;4484605;32;34082;-64
2021/07/14 08:39:55;;;;;;;10.27;8.50;;;;;;;30.07;42.56;99069.44;4485016;32;34082;-65
2021/07/14 08:42:22;;;;;;;11.40;8.10;;;;;;;30.06;42.57;99059.56;4484825;32;33930;-64
2021/07/14 08:44:50;;;;;;;12.25;8.15;;;;;;;30.06;42.58;99070.56;4484469;32;33350;-65
2021/07/14 08:47:18;;;;;;;10.05;8.02;;;;;;;30.06;42.55;99071.37;4484821;32;33943;-65
2021/07/14 08:49:47;;;;;;;13.00;8.50;;;;;;;30.06;42.57;99074.13;4484895;32;33984;-65
2021/07/14 08:52:15;;;;;;;10.73;8.18;;;;;;;30.06;42.56;99073.31;4484826;32;33574;-65
2021/07/14 08:54:43;;;;;;;11.48;8.30;;;;;;;30.07;42.51;99077.69;4484601;32;33059;-65
2021/07/14 08:57:11;;;;;;;10.50;7.85;;;;;;;30.07;42.52;99066.69;4484784;32;34138;-65
2021/07/14 08:59:38;;;;;;;10.68;7.87;;;;;;;30.08;42.52;99062.81;4483538;32;34919;-63
2021/07/14 09:02:06;;;;;;;11.57;7.87;;;;;;;30.08;42.54;99051.81;4483512;32;34505;-64
2021/07/14 09:04:33;;;;;;;10.90;7.53;;;;;;;30.07;42.52;99066.69;4484349;32;34075;-64
2021/07/14 09:07:01;;;;;;;10.38;7.78;;;;;;;30.06;42.52;99060.38;4484360;32;33977;-64
2021/07/14 09:09:31;;;;;;;;;;;;;;;30.07;42.52;99073.00;4483605;32;34122;-65
2021/07/14 09:11:59;;;;;;;10.45;7.82;;;;;;;30.19;42.26;99076.25;4484584;32;34826;-63
2021/07/14 09:14:30;;;;;;;9.65;7.45;;;;;;;30.09;42.47;99081.81;4484672;32;34199;-64
2021/07/14 09:16:59;;;;;;;9.63;7.72;;;;;;;30.06;42.55;99085.13;4484210;32;34618;-63
2021/07/14 09:19:29;;;;;;;8.73;7.70;;;;;;;30.06;42.55;99085.13;4484362;32;33942;-64
2021/07/14 09:21:57;;;;;;;9.80;8.32;;;;;;;30.07;42.55;99089.53;4484568;32;34479;-65
2021/07/14 09:24:31;;;;;;;9.80;8.05;;;;;;;30.06;42.56;99082.38;4484687;32;33916;-64
2021/07/14 09:27:02;;;;;;;11.40;7.97;;;;;;;30.07;42.55;99083.19;4484587;32;33573;-65
2021/07/14 09:29:30;;;;;;;9.57;7.95;;;;;;;30.07;42.55;99077.69;4483358;32;34078;-65
2021/07/14 09:31:57;;;;;;;10.52;7.70;;;;;;;30.07;42.58;99083.19;4484196;32;33903;-66
2021/07/14 09:34:25;;;;;;;9.23;7.78;;;;;;;30.07;42.58;99074.94;4484187;32;33659;-63
2021/07/14 09:36:57;;;;;;;12.68;7.32;;;;;;;30.07;42.55;99073.00;4484408;32;34242;-63
2021/07/14 09:39:32;;;;;;;8.20;7.10;;;;;;;30.07;42.55;99078.50;4484251;32;33641;-63
2021/07/14 09:42:11;;;;;;;9.23;7.43;;;;;;;30.08;42.55;99077.44;4484558;32;33998;-65
2021/07/14 09:44:46;;;;;;;15.45;8.00;;;;;;;30.08;42.55;99069.19;4484214;32;33620;-63
2021/07/14 09:47:18;;;;;;;8.90;7.03;;;;;;;30.08;42.54;99079.34;4484394;32;34112;-65
2021/07/14 09:49:49;;;;;;;9.93;8.35;;;;;;;30.07;42.56;99072.19;4483327;32;33690;-65
2021/07/14 09:52:21;;;;;;;9.90;7.78;;;;;;;30.06;42.59;99076.88;4484429;32;34127;-65
2021/07/14 09:54:49;;;;;;;9.98;7.30;;;;;;;30.06;42.58;99078.81;4482330;32;33846;-65
2021/07/14 09:57:18;;;;;;;14.93;8.98;;;;;;;30.06;42.58;99079.63;4483065;32;33657;-65
2021/07/14 09:59:46;;;;;;;9.27;7.45;;;;;;;30.06;42.61;99079.63;4483948;32;34864;-63
2021/07/14 10:02:14;;;;;;;9.80;7.65;;;;;;;30.09;42.64;99075.50;4484437;32;34879;-64
2021/07/14 10:04:44;;;;;;;11.57;7.57;;;;;;;30.09;42.64;99072.75;4484146;32;33647;-65
2021/07/14 10:07:18;;;;;;;10.18;7.65;;;;;;;30.10;42.66;99080.69;4484368;32;33414;-65
2021/07/14 10:09:46;;;;;;;13.48;7.75;;;;;;;30.12;42.65;99077.66;4484229;32;34187;-65
2021/07/14 10:12:32;;;;;;;9.95;7.75;;;;;;;30.12;42.70;99063.91;4484123;32;33625;-64
2021/07/14 10:15:08;;;;;;;8.75;7.50;;;;;;;30.14;42.68;99084.56;4484192;32;34185;-65
2021/07/14 10:17:40;;;;;;;9.25;7.20;;;;;;;30.13;42.73;99073.81;4484343;32;33835;-65
2021/07/14 10:20:29;;;;;;;8.75;7.80;;;;;;;30.12;42.78;99075.72;4484054;32;33977;-66
2021/07/14 10:22:58;;;;;;;12.43;8.02;;;;;;;30.15;42.78;99079.88;4482956;32;33990;-63
2021/07/14 10:25:26;;;;;;;13.57;7.73;;;;;;;30.12;42.91;99075.72;4482866;32;33549;-63
2021/07/14 10:27:54;;;;;;;15.10;7.62;;;;;;;30.12;42.95;99072.97;4483959;32;35019;-63
2021/07/14 10:30:22;;;;;;;12.60;7.53;;;;;;;30.11;43.06;99071.34;4483839;32;34193;-65
2021/07/14 10:32:49;;;;;;;10.50;7.40;;;;;;;30.10;43.10;99063.37;4484052;32;35104;-64
2021/07/14 10:35:20;;;;;;;10.05;7.05;;;;;;;30.11;43.04;99071.34;4483801;32;34162;-65
2021/07/14 10:38:18;;;;;;;12.65;7.43;;;;;;;30.10;43.05;99064.19;4483988;32;34003;-65
2021/07/14 10:40:46;;;;;;;10.90;7.60;;;;;;;30.13;42.85;99049.91;4482882;32;34292;-65
2021/07/14 10:43:15;;;;;;;9.95;7.30;;;;;;;30.12;42.85;99044.62;4483926;32;34062;-66
2021/07/14 10:45:44;;;;;;;10.43;7.67;;;;;;;30.11;42.85;99051.25;4483434;32;33428;-65
2021/07/14 10:48:16;;;;;;;;;;;;;;;30.11;42.86;99054.81;4482848;32;34787;-65
2021/07/14 10:50:43;;;;;;;10.35;7.22;;;;;;;30.23;42.61;99035.22;4482542;32;33945;-65
2021/07/14 10:53:12;;;;;;;11.40;7.87;;;;;;;30.14;42.75;99028.72;4483536;32;34637;-65
2021/07/14 10:55:40;;;;;;;10.63;7.03;;;;;;;30.11;42.78;99046.56;4483817;32;33582;-65
2021/07/14 10:58:10;;;;;;;9.50;7.70;;;;;;;30.11;42.78;99045.75;4482433;32;35231;-63
2021/07/14 11:00:41;;;;;;;9.50;6.60;;;;;;;30.10;42.82;99028.44;4468244;32;34894;-63
2021/07/14 11:03:40;;;;;;;10.45;6.90;;;;;;;30.10;42.80;99033.13;4482816;32;34191;-65
2021/07/14 11:06:09;;;;;;;8.55;7.00;;;;;;;30.13;42.71;99044.41;4483913;32;33630;-63
2021/07/14 11:08:47;;;;;;;10.65;6.53;;;;;;;30.10;42.80;99041.37;4484187;32;34172;-65
2021/07/14 11:11:21;;;;;;;10.05;7.35;;;;;;;30.11;42.79;99054.00;4485532;32;33708;-64
2021/07/14 11:13:52;;;;;;;8.52;7.37;;;;;;;30.11;42.75;99052.06;4485517;32;33806;-65
2021/07/14 11:16:27;;;;;;;13.00;7.82;;;;;;;30.09;42.77;99054.31;4483920;32;33480;-64
2021/07/14 11:19:00;;;;;;;9.90;6.82;;;;;;;30.10;42.74;99061.44;4485418;32;34038;-64
2021/07/14 11:21:52;;;;;;;10.65;7.47;;;;;;;30.10;42.78;99052.38;4485324;32;33648;-63
2021/07/14 11:24:47;;;;;;;13.30;7.70;;;;;;;30.12;42.71;99045.44;4485494;32;35319;-63
2021/07/14 11:27:26;;;;;;;8.70;6.82;;;;;;;30.11;42.70;99046.56;4485515;32;34004;-64
2021/07/14 11:29:54;;;;;;;;;;;;;;;30.11;42.71;99045.75;4485179;32;33878;-64
2021/07/14 11:32:38;;;;;;;8.32;6.82;;;;;;;30.19;42.48;99029.47;4485545;32;34317;-65
2021/07/14 11:35:13;;;;;;;9.52;6.65;;;;;;;30.13;42.64;99038.03;4485311;32;33486;-65
2021/07/14 11:38:02;;;;;;;8.95;6.78;;;;;;;30.09;42.73;99034.22;4485462;32;33397;-66
2021/07/14 11:40:34;;;;;;;8.43;6.87;;;;;;;30.11;42.70;99046.56;4483839;32;34292;-66
2021/07/14 11:43:10;;;;;;;8.80;7.28;;;;;;;30.08;42.74;99033.41;4485399;32;33995;-65